createdAt,value
2023-01-09T00:01:48.120Z,98024.75
2023-01-09T00:04:16.275Z,98029.88
2023-01-09T00:06:45.890Z,98035.84
2023-01-09T00:09:13.461Z,98043.44
2023-01-09T00:11:41.025Z,98044.94
2023-01-09T00:14:10.909Z,98052.53
2023-01-09T00:16:38.770Z,98058.19
2023-01-09T00:19:06.364Z,98053.41
2023-01-09T00:21:34.204Z,98067.78
2023-01-09T00:24:02.015Z,98068.97
2023-01-09T00:26:30.035Z,98067.47
2023-01-09T00:28:58.535Z,98066.00
2023-01-09T00:31:26.293Z,98069.84
2023-01-09T00:34:05.297Z,98070.84
2023-01-09T00:36:32.870Z,98061.56
2023-01-09T00:39:00.395Z,98054.31
2023-01-09T00:41:32.108Z,98064.88
2023-01-09T00:44:12.705Z,98057.09
2023-01-09T00:46:45.519Z,98062.06
2023-01-09T00:49:14.837Z,98074.31
2023-01-09T00:51:42.894Z,98080.13
2023-01-09T00:54:14.473Z,98082.59
2023-01-09T00:56:42.443Z,98079.63
2023-01-09T00:59:10.206Z,98082.25
2023-01-09T01:01:37.901Z,98094.66
2023-01-09T01:04:25.464Z,98098.97
2023-01-09T01:07:11.865Z,98115.34
2023-01-09T01:09:39.449Z,98115.50
2023-01-09T01:12:07.346Z,98123.97
2023-01-09T01:14:37.057Z,98127.13
2023-01-09T01:17:05.822Z,98115.34
2023-01-09T01:19:35.385Z,98123.97
2023-01-09T01:22:03.796Z,98119.50
2023-01-09T01:24:31.539Z,98115.03
2023-01-09T01:26:59.155Z,98116.03
2023-01-09T01:29:27.379Z,98123.97
2023-01-09T01:31:55.092Z,98134.75
2023-01-09T01:34:22.717Z,98137.72
2023-01-09T01:36:50.327Z,98141.34
2023-01-09T01:39:17.848Z,98144.16
2023-01-09T01:41:45.508Z,98149.44
2023-01-09T01:44:50.336Z,98146.81
2023-01-09T01:47:20.385Z,98165.34
2023-01-09T01:49:48.571Z,98168.44
2023-01-09T01:52:19.457Z,98168.63
2023-01-09T01:54:48.172Z,98174.59
2023-01-09T01:57:15.763Z,98174.59
2023-01-09T01:59:51.300Z,98171.28
2023-01-09T02:02:22.586Z,98182.53
2023-01-09T02:04:53.664Z,98193.94
2023-01-09T02:07:21.234Z,98192.28
2023-01-09T02:09:49.201Z,98197.56
2023-01-09T02:12:25.105Z,98202.72
2023-01-09T02:15:06.907Z,98211.16
2023-01-09T02:17:43.451Z,98207.38
2023-01-09T02:20:45.399Z,98218.59
2023-01-09T02:23:50.692Z,98225.72
2023-01-09T02:26:54.770Z,98228.03
2023-01-09T02:29:44.172Z,98234.06
2023-01-09T02:32:20.677Z,98249.63
2023-01-09T02:35:04.424Z,98240.03
2023-01-09T02:37:51.813Z,98246.97
2023-01-09T02:40:31.313Z,98257.25
2023-01-09T02:43:00.557Z,98268.47
2023-01-09T02:45:28.173Z,98269.16
2023-01-09T02:47:55.833Z,98268.34
2023-01-09T02:50:39.730Z,98275.28
2023-01-09T02:53:26.076Z,98280.44
2023-01-09T02:56:20.311Z,98285.88
2023-01-09T02:58:59.987Z,98300.94
2023-01-09T03:01:34.514Z,98309.06
2023-01-09T03:04:19.212Z,98302.91
2023-01-09T03:06:58.665Z,98306.72
2023-01-09T03:09:29.537Z,98316.47
2023-01-09T03:12:04.375Z,98313.31
2023-01-09T03:14:34.039Z,98315.28
2023-01-09T03:17:06.316Z,98325.19
2023-01-09T03:19:35.357Z,98316.56
2023-01-09T03:22:03.622Z,98317.72
2023-01-09T03:24:31.354Z,98323.34
2023-01-09T03:26:58.963Z,98334.38
2023-01-09T03:29:27.848Z,98343.81
2023-01-09T03:31:57.582Z,98337.97
2023-01-09T03:34:25.705Z,98352.50
2023-01-09T03:36:53.211Z,98347.53
2023-01-09T03:39:20.680Z,98351.47
2023-01-09T03:41:48.232Z,98354.31
2023-01-09T03:44:15.796Z,98357.91
2023-01-09T03:46:43.433Z,98356.56
2023-01-09T03:49:11.017Z,98358.53
2023-01-09T03:51:38.564Z,98371.94
2023-01-09T03:54:06.041Z,98372.06
2023-01-09T03:56:33.657Z,98391.59
2023-01-09T03:59:01.235Z,98401.66
2023-01-09T04:01:28.910Z,98401.81
2023-01-09T04:03:56.575Z,98405.41
2023-01-09T04:06:24.322Z,98413.22
2023-01-09T04:08:52.003Z,98405.13
2023-01-09T04:11:22.432Z,98406.63
2023-01-09T04:13:50.044Z,98426.50
2023-01-09T04:16:17.568Z,98436.78
2023-01-09T04:18:45.189Z,98447.88
2023-01-09T04:21:12.708Z,98440.31
2023-01-09T04:23:40.353Z,98445.13
2023-01-09T04:26:08.136Z,98450.59
2023-01-09T04:28:35.753Z,98456.19
2023-01-09T04:31:03.462Z,98461.78
2023-01-09T04:33:31.267Z,98456.81
2023-01-09T04:35:59.031Z,98458.94
2023-01-09T04:38:27.563Z,98453.25
2023-01-09T04:40:55.453Z,98468.31
2023-01-09T04:43:22.992Z,98469.44
2023-01-09T04:45:50.523Z,98475.72
2023-01-09T04:48:18.116Z,98483.66
2023-01-09T04:50:45.663Z,98486.31
2023-01-09T04:53:13.215Z,98494.06
2023-01-09T04:55:41.557Z,98494.06
2023-01-09T04:58:09.358Z,98498.69
2023-01-09T05:00:36.846Z,98513.88
2023-01-09T05:03:04.406Z,98518.81
2023-01-09T05:05:31.895Z,98517.44
2023-01-09T05:07:59.496Z,98515.25
2023-01-09T05:10:27.002Z,98522.78
2023-01-09T05:12:54.546Z,98527.00
2023-01-09T05:15:22.237Z,98532.22
2023-01-09T05:17:49.849Z,98533.66
2023-01-09T05:20:17.508Z,98539.22
2023-01-09T05:22:45.325Z,98534.94
2023-01-09T05:25:12.899Z,98537.72
2023-01-09T05:27:43.966Z,98551.91
2023-01-09T05:30:13.695Z,98557.50
2023-01-09T05:32:41.885Z,98558.78
2023-01-09T05:35:09.664Z,98562.81
2023-01-09T05:37:37.236Z,98559.09
2023-01-09T05:40:05.217Z,98561.22
2023-01-09T05:42:32.833Z,98572.19
2023-01-09T05:45:00.878Z,98575.28
2023-01-09T05:47:28.523Z,98574.59
2023-01-09T05:49:58.784Z,98584.63
2023-01-09T05:52:26.398Z,98592.69
2023-01-09T05:54:53.933Z,98593.38
2023-01-09T05:57:21.484Z,98586.69
2023-01-09T05:59:48.987Z,98591.53
2023-01-09T06:02:16.767Z,98604.06
2023-01-09T06:04:44.621Z,98601.56
2023-01-09T06:07:15.513Z,98603.25
2023-01-09T06:09:46.160Z,98604.72
2023-01-09T06:12:13.872Z,98607.63
2023-01-09T06:14:41.396Z,98615.16
2023-01-09T06:17:09.284Z,98624.16
2023-01-09T06:19:36.887Z,98627.88
2023-01-09T06:22:04.406Z,98623.81
2023-01-09T06:24:31.901Z,98636.59
2023-01-09T06:26:59.528Z,98636.00
2023-01-09T06:29:27.159Z,98648.53
2023-01-09T06:31:54.623Z,98658.22
2023-01-09T06:34:22.243Z,98653.31
2023-01-09T06:36:49.766Z,98657.63
2023-01-09T06:39:17.395Z,98664.06
2023-01-09T06:41:47.114Z,98667.94
2023-01-09T06:44:16.055Z,98670.22
2023-01-09T06:46:43.560Z,98665.50
2023-01-09T06:49:11.598Z,98665.78
2023-01-09T06:51:39.214Z,98679.31
2023-01-09T06:54:06.742Z,98668.03
2023-01-09T06:56:34.290Z,98679.47
2023-01-09T06:59:02.116Z,98690.16
2023-01-09T07:01:29.804Z,98693.66
2023-01-09T07:03:57.591Z,98699.91
2023-01-09T07:06:25.611Z,98702.41
2023-01-09T07:08:53.340Z,98711.03
2023-01-09T07:11:20.887Z,98722.84
2023-01-09T07:13:48.456Z,98715.47
2023-01-09T07:16:16.176Z,98713.50
2023-01-09T07:18:44.035Z,98719.94
2023-01-09T07:21:11.541Z,98712.13
2023-01-09T07:23:39.089Z,98717.56
2023-01-09T07:26:06.648Z,98720.75
2023-01-09T07:28:34.263Z,98727.69
2023-01-09T07:31:02.731Z,98739.81
2023-01-09T07:33:30.712Z,98742.16
2023-01-09T07:35:58.509Z,98743.69
2023-01-09T07:38:26.415Z,98745.63
2023-01-09T07:40:54.043Z,98756.38
2023-01-09T07:43:21.602Z,98766.53
2023-01-09T07:45:49.141Z,98779.22
2023-01-09T07:48:16.825Z,98784.34
2023-01-09T07:50:44.448Z,98803.41
2023-01-09T07:53:12.111Z,98778.75
2023-01-09T07:55:40.045Z,98782.81
2023-01-09T07:58:07.641Z,98780.00
2023-01-09T08:00:35.249Z,98781.66
2023-01-09T08:03:03.030Z,98796.28
2023-01-09T08:05:30.601Z,98808.38
2023-01-09T08:07:58.495Z,98805.88
2023-01-09T08:10:26.255Z,98799.75
2023-01-09T08:12:53.904Z,98818.28
2023-01-09T08:15:21.387Z,98818.13
2023-01-09T08:17:49.002Z,98823.56
2023-01-09T08:20:17.717Z,98832.63
2023-01-09T08:22:50.610Z,98833.19
2023-01-09T08:25:18.736Z,98849.22
2023-01-09T08:27:47.114Z,98850.31
2023-01-09T08:30:15.809Z,98853.09
2023-01-09T08:32:43.617Z,98854.22
2023-01-09T08:35:11.290Z,98863.28
2023-01-09T08:37:38.913Z,98865.94
2023-01-09T08:40:07.135Z,98867.31
2023-01-09T08:42:53.250Z,98888.03
2023-01-09T08:45:39.240Z,98895.13
2023-01-09T08:48:07.626Z,98889.13
2023-01-09T08:50:35.169Z,98889.69
2023-01-09T08:53:02.931Z,98891.06
2023-01-09T08:55:30.615Z,98896.91
2023-01-09T08:57:58.278Z,98906.50
2023-01-09T09:00:26.086Z,98911.78
2023-01-09T09:02:55.716Z,98921.72
2023-01-09T09:05:24.497Z,98911.13
2023-01-09T09:07:56.263Z,98915.44
2023-01-09T09:10:26.324Z,98917.09
2023-01-09T09:12:55.902Z,98925.88
2023-01-09T09:15:25.190Z,98922.53
2023-01-09T09:17:54.529Z,98927.13
2023-01-09T09:20:24.111Z,98927.13
2023-01-09T09:22:51.994Z,98926.72
2023-01-09T09:25:19.666Z,98925.59
2023-01-09T09:27:47.834Z,98927.38
2023-01-09T09:30:18.552Z,98928.53
2023-01-09T09:32:47.007Z,98934.94
2023-01-09T09:35:14.857Z,98937.44
2023-01-09T09:37:42.436Z,98948.00
2023-01-09T09:40:20.267Z,98935.63
2023-01-09T09:43:34.271Z,98951.09
2023-01-09T09:46:20.791Z,98961.50
2023-01-09T09:48:54.694Z,98973.47
2023-01-09T09:51:22.309Z,98972.63
2023-01-09T09:53:55.899Z,98975.25
2023-01-09T09:56:24.332Z,98973.72
2023-01-09T09:59:15.100Z,98989.28
2023-01-09T10:01:55.428Z,98988.34
2023-01-09T10:04:25.963Z,98992.53
2023-01-09T10:07:00.131Z,98991.91
2023-01-09T10:09:46.897Z,99005.13
2023-01-09T10:12:39.141Z,99003.31
2023-01-09T10:15:18.325Z,99009.69
2023-01-09T10:18:18.265Z,99003.81
2023-01-09T10:21:16.638Z,99016.59
2023-01-09T10:24:12.539Z,99028.56
2023-01-09T10:26:45.515Z,99024.13
2023-01-09T10:29:36.576Z,99019.50
2023-01-09T10:32:07.065Z,99027.56
2023-01-09T10:34:50.439Z,99026.56
2023-01-09T10:37:40.536Z,99026.56
2023-01-09T10:40:25.365Z,99023.97
2023-01-09T10:42:59.314Z,99029.31
2023-01-09T10:45:31.521Z,99042.44
2023-01-09T10:48:11.578Z,99033.94
2023-01-09T10:50:45.979Z,99031.84
2023-01-09T10:53:28.681Z,99043.16
2023-01-09T10:56:14.295Z,99039.22
2023-01-09T10:58:41.957Z,99043.81
2023-01-09T11:01:09.850Z,99041.31
2023-01-09T11:03:39.115Z,99037.91
2023-01-09T11:06:21.946Z,99032.28
2023-01-09T11:08:53.621Z,99032.00
2023-01-09T11:11:44.525Z,99024.47
2023-01-09T11:14:33.241Z,99036.53
2023-01-09T11:17:04.034Z,99039.88
2023-01-09T11:19:33.663Z,99036.63
2023-01-09T11:22:09.539Z,99039.81
2023-01-09T11:24:37.250Z,99044.81
2023-01-09T11:27:13.941Z,99054.47
2023-01-09T11:29:42.174Z,99045.59
2023-01-09T11:32:23.256Z,99059.41
2023-01-09T11:34:51.092Z,99054.16
2023-01-09T11:37:26.237Z,99053.41
2023-01-09T11:39:55.663Z,99061.31
2023-01-09T11:42:44.905Z,99068.97
2023-01-09T11:45:24.323Z,99065.47
2023-01-09T11:47:51.879Z,99072.34
2023-01-09T11:50:29.424Z,99069.50
2023-01-09T11:53:17.790Z,99084.78
2023-01-09T11:55:47.393Z,99099.03
2023-01-09T11:58:17.816Z,99077.28
2023-01-09T12:01:25.911Z,99110.13
2023-01-09T12:04:11.152Z,99126.56
2023-01-09T12:06:45.119Z,99127.59
2023-01-09T12:09:28.941Z,99134.00
2023-01-09T12:12:09.881Z,99136.56
2023-01-09T12:14:45.402Z,99139.56
2023-01-09T12:17:50.280Z,99152.78
2023-01-09T12:21:05.792Z,99162.97
2023-01-09T12:23:45.423Z,99141.78
2023-01-09T12:26:15.873Z,99130.66
2023-01-09T12:29:07.688Z,99128.84
2023-01-09T12:31:47.461Z,99119.81
2023-01-09T12:34:30.916Z,99135.31
2023-01-09T12:37:26.217Z,99139.47
2023-01-09T12:40:15.261Z,99137.63
2023-01-09T12:43:33.090Z,99137.81
2023-01-09T12:46:13.986Z,99139.16
2023-01-09T12:49:22.344Z,99145.63
2023-01-09T12:51:56.142Z,99128.00
2023-01-09T12:54:42.442Z,99116.03
2023-01-09T12:57:19.157Z,99113.44
2023-01-09T13:00:07.705Z,99108.84
2023-01-09T13:02:44.400Z,99113.50
2023-01-09T13:11:23.216Z,99129.88
2023-01-09T13:14:17.721Z,99127.69
2023-01-09T13:16:50.138Z,99126.44
2023-01-09T13:19:49.997Z,99133.16
2023-01-09T13:22:18.314Z,99145.56
2023-01-09T13:25:03.332Z,99142.06
2023-01-09T13:27:39.082Z,99139.28
2023-01-09T13:30:20.124Z,99147.91
2023-01-09T13:33:04.710Z,99153.38
2023-01-09T13:35:32.522Z,99151.00
2023-01-09T13:38:00.386Z,99150.31
2023-01-09T13:40:30.345Z,99145.88
2023-01-09T13:42:59.009Z,99136.09
2023-01-09T13:45:29.634Z,99130.34
2023-01-09T13:48:18.035Z,99130.91
2023-01-09T13:50:47.554Z,99130.22
2023-01-09T13:53:18.147Z,99139.94
2023-01-09T13:55:58.016Z,99137.53
2023-01-09T13:58:32.088Z,99137.75
2023-01-09T14:01:02.227Z,99151.47
2023-01-09T14:03:36.666Z,99161.53
2023-01-09T14:06:12.097Z,99165.19
2023-01-09T14:08:42.112Z,99169.00
2023-01-09T14:11:18.436Z,99175.19
2023-01-09T14:13:47.039Z,99172.41
2023-01-09T14:16:20.708Z,99186.13
2023-01-09T14:18:50.650Z,99186.41
2023-01-09T14:21:19.079Z,99186.53
2023-01-09T14:24:07.207Z,99189.06
2023-01-09T14:26:50.738Z,99185.41
2023-01-09T14:29:31.413Z,99202.72
2023-01-09T14:32:23.659Z,99220.56
2023-01-09T14:35:03.532Z,99216.66
2023-01-09T14:37:38.408Z,99224.31
2023-01-09T14:40:08.468Z,99229.34
2023-01-09T14:42:40.900Z,99237.03
2023-01-09T14:45:19.463Z,99236.72
2023-01-09T14:47:53.490Z,99243.41
2023-01-09T14:50:38.069Z,99251.91
2023-01-09T14:53:12.322Z,99260.59
2023-01-09T14:55:57.795Z,99259.72
2023-01-09T14:58:35.063Z,99271.19
2023-01-09T15:01:04.769Z,99279.16
2023-01-09T15:03:38.675Z,99280.94
2023-01-09T15:06:12.259Z,99293.25
2023-01-09T15:08:39.948Z,99301.22
2023-01-09T15:11:11.960Z,99306.66
2023-01-09T15:13:49.127Z,99314.47
2023-01-09T15:16:22.885Z,99316.44
2023-01-09T15:18:54.590Z,99323.84
2023-01-09T15:21:24.688Z,99343.41
2023-01-09T15:23:53.010Z,99348.53
2023-01-09T15:26:27.103Z,99363.34
2023-01-09T15:29:02.063Z,99372.31
2023-01-09T15:31:29.858Z,99384.03
2023-01-09T15:33:57.620Z,99386.13
2023-01-09T15:36:28.678Z,99402.44
2023-01-09T15:38:58.995Z,99409.28
2023-01-09T15:41:47.886Z,99417.66
2023-01-09T15:44:18.700Z,99426.47
2023-01-09T15:46:52.474Z,99431.75
2023-01-09T15:49:20.634Z,99439.56
2023-01-09T15:51:49.374Z,99445.03
2023-01-09T15:54:23.530Z,99453.09
2023-01-09T15:56:51.122Z,99462.31
2023-01-09T15:59:27.850Z,99473.06
2023-01-09T16:02:24.578Z,99477.38
2023-01-09T16:04:54.813Z,99485.91
2023-01-09T16:07:22.559Z,99499.16
2023-01-09T16:09:52.854Z,99507.13
2023-01-09T16:12:27.399Z,99514.09
2023-01-09T16:14:58.093Z,99517.47
2023-01-09T16:17:27.271Z,99522.50
2023-01-09T16:20:14.631Z,99538.97
2023-01-09T16:22:55.888Z,99557.69
2023-01-09T16:25:34.366Z,99561.19
2023-01-09T16:28:23.598Z,99557.41
2023-01-09T16:31:03.356Z,99564.06
2023-01-09T16:33:31.910Z,99560.13
2023-01-09T16:35:59.709Z,99565.00
2023-01-09T16:38:27.676Z,99574.19
2023-01-09T16:41:26.217Z,99587.13
2023-01-09T16:43:54.125Z,99600.91
2023-01-09T16:46:22.487Z,99613.59
2023-01-09T16:48:50.624Z,99612.19
2023-01-09T16:51:21.857Z,99617.00
2023-01-09T16:53:50.612Z,99616.69
2023-01-09T16:56:22.765Z,99641.78
2023-01-09T16:58:52.806Z,99657.25
2023-01-09T17:01:22.442Z,99664.47
2023-01-09T17:03:50.727Z,99672.66
2023-01-09T17:06:30.441Z,99678.38
2023-01-09T17:08:58.751Z,99686.41
2023-01-09T17:11:31.778Z,99685.69
2023-01-09T17:14:02.533Z,99691.00
2023-01-09T17:16:30.699Z,99690.88
2023-01-09T17:18:58.572Z,99703.75
2023-01-09T17:21:31.107Z,99703.13
2023-01-09T17:24:18.521Z,99714.63
2023-01-09T17:27:09.439Z,99724.75
2023-01-09T17:29:37.659Z,99738.25
2023-01-09T17:32:05.510Z,99746.44
2023-01-09T17:34:34.806Z,99756.78
2023-01-09T17:37:04.396Z,99761.69
2023-01-09T17:39:32.635Z,99759.38
2023-01-09T17:42:02.013Z,99762.28
2023-01-09T17:44:29.752Z,99766.31
2023-01-09T17:46:57.601Z,99774.75
2023-01-09T17:49:27.090Z,99780.66
2023-01-09T17:51:54.787Z,99778.25
2023-01-09T17:54:22.460Z,99794.31
2023-01-09T17:56:51.244Z,99797.19
2023-01-09T17:59:19.108Z,99791.31
2023-01-09T18:01:47.131Z,99792.63
2023-01-09T18:04:14.823Z,99806.84
2023-01-09T18:06:42.819Z,99812.25
2023-01-09T18:09:15.691Z,99822.03
2023-01-09T18:11:44.933Z,99829.00
2023-01-09T18:14:13.834Z,99841.16
2023-01-09T18:16:41.734Z,99859.00
2023-01-09T18:19:09.556Z,99866.94
2023-01-09T18:21:37.105Z,99869.34
2023-01-09T18:24:05.322Z,99872.34
2023-01-09T18:26:32.876Z,99870.06
2023-01-09T18:29:00.959Z,99874.88
2023-01-09T18:31:29.965Z,99884.13
2023-01-09T18:34:02.093Z,99871.59
2023-01-09T18:36:30.554Z,99879.66
2023-01-09T18:39:01.667Z,99886.16
2023-01-09T18:41:30.369Z,99888.47
2023-01-09T18:44:00.515Z,99890.91
2023-01-09T18:47:01.314Z,99904.03
2023-01-09T18:49:33.872Z,99902.81
2023-01-09T18:52:01.653Z,99898.94
2023-01-09T18:54:29.285Z,99910.13
2023-01-09T18:56:56.891Z,99904.34
2023-01-09T18:59:24.518Z,99917.81
2023-01-09T19:01:52.174Z,99929.75
2023-01-09T19:04:19.863Z,99922.97
2023-01-09T19:06:47.533Z,99927.56
2023-01-09T19:09:15.169Z,99940.06
2023-01-09T19:11:45.994Z,99940.06
2023-01-09T19:14:13.588Z,99945.50
2023-01-09T19:16:41.264Z,99961.59
2023-01-09T19:19:11.152Z,99963.41
2023-01-09T19:21:38.796Z,99970.38
2023-01-09T19:24:06.908Z,99969.56
2023-01-09T19:26:34.636Z,99979.16
2023-01-09T19:29:02.348Z,99983.50
2023-01-09T19:31:30.278Z,99996.63
2023-01-09T19:33:58.826Z,100008.66
2023-01-09T19:36:27.537Z,100013.88
2023-01-09T19:39:02.664Z,100031.28
2023-01-09T19:41:31.115Z,100035.44
2023-01-09T19:44:02.395Z,100042.88
2023-01-09T19:46:33.558Z,100054.72
2023-01-09T19:49:04.761Z,100060.06
2023-01-09T19:51:33.738Z,100059.47
2023-01-09T19:56:30.863Z,100055.28
2023-01-09T19:59:01.066Z,100067.31
2023-01-09T20:01:39.135Z,100079.28
2023-01-09T20:04:13.609Z,100084.19
2023-01-09T20:06:44.006Z,100088.88
2023-01-09T20:09:14.044Z,100104.75
2023-01-09T20:11:41.805Z,100104.66
2023-01-09T20:14:16.736Z,100103.69
2023-01-09T20:16:44.981Z,100094.91
2023-01-09T20:19:13.274Z,100102.84
2023-01-09T20:21:42.831Z,100099.47
2023-01-09T20:24:14.571Z,100101.13
2023-01-09T20:26:42.361Z,100109.81
2023-01-09T20:29:10.077Z,100105.13
2023-01-09T20:31:37.840Z,100114.53
2023-01-09T20:34:05.508Z,100115.09
2023-01-09T20:36:34.903Z,100119.78
2023-01-09T20:39:05.573Z,100125.25
2023-01-09T20:41:33.815Z,100133.34
2023-01-09T20:44:04.997Z,100148.69
2023-01-09T20:46:38.891Z,100140.97
2023-01-09T20:49:08.623Z,100134.59
2023-01-09T20:51:40.403Z,100136.50
2023-01-09T20:54:08.067Z,100138.78
2023-01-09T20:56:40.228Z,100143.94
2023-01-09T20:59:13.087Z,100138.50
2023-01-09T21:01:46.198Z,100145.34
2023-01-09T21:04:14.036Z,100155.66
2023-01-09T21:06:42.720Z,100153.78
2023-01-09T21:09:10.465Z,100176.38
2023-01-09T21:11:38.152Z,100183.06
2023-01-09T21:14:05.808Z,100185.09
2023-01-09T21:16:33.420Z,100185.09
2023-01-09T21:19:01.073Z,100186.56
2023-01-09T21:21:29.463Z,100176.81
2023-01-09T21:23:59.176Z,100178.50
2023-01-09T21:26:30.449Z,100175.97
2023-01-09T21:29:00.027Z,100173.56
2023-01-09T21:31:36.600Z,100170.28
2023-01-09T21:34:06.905Z,100177.84
2023-01-09T21:36:36.150Z,100170.34
2023-01-09T21:39:07.893Z,100172.69
2023-01-09T21:41:56.875Z,100166.97
2023-01-09T21:44:43.020Z,100173.53
2023-01-09T21:47:10.964Z,100171.25
2023-01-09T21:49:43.434Z,100171.38
2023-01-09T21:52:14.516Z,100179.53
2023-01-09T21:54:42.340Z,100167.34
2023-01-09T21:57:10.760Z,100174.66
2023-01-09T21:59:43.194Z,100187.34
2023-01-09T22:02:14.618Z,100203.44
2023-01-09T22:04:43.158Z,100197.44
2023-01-09T22:07:10.701Z,100205.03
2023-01-09T22:09:38.325Z,100214.44
2023-01-09T22:12:06.095Z,100212.19
2023-01-09T22:14:33.758Z,100207.44
2023-01-09T22:17:01.373Z,100208.91
2023-01-09T22:19:28.973Z,100208.47
2023-01-09T22:21:56.554Z,100217.88
2023-01-09T22:24:24.223Z,100219.25
2023-01-09T22:26:51.858Z,100223.38
2023-01-09T22:29:19.531Z,100228.44
2023-01-09T22:31:47.944Z,100231.50
2023-01-09T22:34:17.359Z,100227.66
2023-01-09T22:36:46.721Z,100230.22
2023-01-09T22:39:16.640Z,100234.47
2023-01-09T22:41:44.847Z,100241.66
2023-01-09T22:44:12.997Z,100252.16
2023-01-09T22:46:40.707Z,100250.34
2023-01-09T22:49:09.156Z,100256.34
2023-01-09T22:51:36.745Z,100258.06
2023-01-09T22:54:04.526Z,100263.88
2023-01-09T22:56:34.938Z,100259.81
2023-01-09T22:59:02.545Z,100263.59
2023-01-09T23:01:30.150Z,100265.72
2023-01-09T23:03:57.819Z,100273.13
2023-01-09T23:06:25.628Z,100282.44
2023-01-09T23:08:55.772Z,100279.44
2023-01-09T23:11:48.282Z,100281.75
2023-01-09T23:14:17.172Z,100277.31
2023-01-09T23:16:44.842Z,100288.84
2023-01-09T23:19:15.756Z,100282.72
2023-01-09T23:21:44.791Z,100286.31
2023-01-09T23:24:15.543Z,100288.47
2023-01-09T23:26:44.139Z,100283.81
2023-01-09T23:29:12.770Z,100289.81
2023-01-09T23:31:40.554Z,100290.09
2023-01-09T23:34:08.510Z,100298.88
2023-01-09T23:36:36.245Z,100301.34
2023-01-09T23:39:08.853Z,100285.22
2023-01-09T23:41:55.844Z,100289.47
2023-01-09T23:44:23.745Z,100271.66
2023-01-09T23:46:51.661Z,100270.91
2023-01-09T23:49:19.571Z,100265.84
2023-01-09T23:51:47.475Z,100268.63
2023-01-09T23:54:16.367Z,100256.31
2023-01-09T23:56:44.008Z,100261.69
2023-01-09T23:59:13.483Z,100264.44
